Terminal Aerodrome Forecast
Issued by NWS

Home | Current Version | Previous Version | Text Only | Print | Product List | Glossary On
Versions: 1 2 3 4 5 6 7 8 9 10 11 12 13 14 15 16 17 18 19 20 21 22 23 24 25
817
FTUS46 KHNX 180731 AAA
TAFMCE
TAF AMD
KMCE 180731Z 1808/1906 10004KT 1/4SM FG VV001
     FM181700 VRB03KT 1/2SM FG OVC005
     FM181800 VRB04KT 1 1/2SM BR OVC008
     FM190000 27004KT 5SM HZ OVC050
     FM190300 34008KT 4SM -RA BR OVC025=

USA.gov is the U.S. government's official web portal to all federal, state and local government web resources and services.